sensor_id;sensor_type;location;lat;lon;timestamp;temperature;humidity
38398;DHT22;24179;52.094;4.408;2022-09-16T00:00:54;13.80;99.90
38398;DHT22;24179;52.094;4.408;2022-09-16T00:03:55;14.00;99.90
38398;DHT22;24179;52.094;4.408;2022-09-16T00:06:56;14.00;99.90
38398;DHT22;24179;52.094;4.408;2022-09-16T00:09:56;14.10;99.90
38398;DHT22;24179;52.094;4.408;2022-09-16T00:12:57;14.30;99.90
38398;DHT22;24179;52.094;4.408;2022-09-16T00:15:57;14.30;99.90
38398;DHT22;24179;52.094;4.408;2022-09-16T00:18:58;14.20;99.90
38398;DHT22;24179;52.094;4.408;2022-09-16T00:21:59;13.90;99.90
38398;DHT22;24179;52.094;4.408;2022-09-16T00:25:00;13.30;99.90
38398;DHT22;24179;52.094;4.408;2022-09-16T00:28:00;12.80;99.90
38398;DHT22;24179;52.094;4.408;2022-09-16T00:31:01;12.60;99.90
38398;DHT22;24179;52.094;4.408;2022-09-16T00:34:02;12.40;99.90
38398;DHT22;24179;52.094;4.408;2022-09-16T00:37:03;12.30;99.90
38398;DHT22;24179;52.094;4.408;2022-09-16T00:40:04;12.40;99.90
38398;DHT22;24179;52.094;4.408;2022-09-16T00:43:04;12.40;99.90
38398;DHT22;24179;52.094;4.408;2022-09-16T00:46:05;12.60;99.90
38398;DHT22;24179;52.094;4.408;2022-09-16T00:49:12;12.60;99.90
38398;DHT22;24179;52.094;4.408;2022-09-16T00:52:16;12.60;99.90
38398;DHT22;24179;52.094;4.408;2022-09-16T00:55:19;12.60;99.90
38398;DHT22;24179;52.094;4.408;2022-09-16T00:58:22;12.50;99.90
38398;DHT22;24179;52.094;4.408;2022-09-16T01:01:24;12.20;99.90
38398;DHT22;24179;52.094;4.408;2022-09-16T01:04:28;12.10;99.90
38398;DHT22;24179;52.094;4.408;2022-09-16T01:07:34;12.10;99.90
38398;DHT22;24179;52.094;4.408;2022-09-16T01:10:36;12.20;99.90
38398;DHT22;24179;52.094;4.408;2022-09-16T01:13:36;12.20;99.90
38398;DHT22;24179;52.094;4.408;2022-09-16T01:16:37;12.20;99.90
38398;DHT22;24179;52.094;4.408;2022-09-16T01:29:11;11.90;99.90
38398;DHT22;24179;52.094;4.408;2022-09-16T01:32:15;11.70;99.90
38398;DHT22;24179;52.094;4.408;2022-09-16T01:41:43;11.40;99.90
38398;DHT22;24179;52.094;4.408;2022-09-16T01:51:33;11.60;99.90
38398;DHT22;24179;52.094;4.408;2022-09-16T01:54:50;11.70;99.90
38398;DHT22;24179;52.094;4.408;2022-09-16T01:57:57;11.80;99.90
38398;DHT22;24179;52.094;4.408;2022-09-16T02:01:02;11.80;99.90
38398;DHT22;24179;52.094;4.408;2022-09-16T02:04:05;11.90;99.90
38398;DHT22;24179;52.094;4.408;2022-09-16T02:07:08;12.00;99.90
38398;DHT22;24179;52.094;4.408;2022-09-16T02:10:15;12.00;99.90
38398;DHT22;24179;52.094;4.408;2022-09-16T02:13:22;11.90;99.90
38398;DHT22;24179;52.094;4.408;2022-09-16T02:16:30;11.90;99.90
38398;DHT22;24179;52.094;4.408;2022-09-16T02:19:42;11.90;99.90
38398;DHT22;24179;52.094;4.408;2022-09-16T02:22:45;11.90;99.90
38398;DHT22;24179;52.094;4.408;2022-09-16T02:25:48;11.80;99.90
38398;DHT22;24179;52.094;4.408;2022-09-16T02:28:49;11.70;99.90
38398;DHT22;24179;52.094;4.408;2022-09-16T02:31:51;11.70;99.90
38398;DHT22;24179;52.094;4.408;2022-09-16T02:34:53;11.60;99.90
38398;DHT22;24179;52.094;4.408;2022-09-16T02:37:56;11.50;99.90
38398;DHT22;24179;52.094;4.408;2022-09-16T02:40:58;11.50;99.90
38398;DHT22;24179;52.094;4.408;2022-09-16T02:43:59;11.50;99.90
38398;DHT22;24179;52.094;4.408;2022-09-16T02:47:04;11.50;99.90
38398;DHT22;24179;52.094;4.408;2022-09-16T02:50:09;11.50;99.90
38398;DHT22;24179;52.094;4.408;2022-09-16T02:56:17;11.60;99.90
38398;DHT22;24179;52.094;4.408;2022-09-16T02:59:18;11.60;99.90
38398;DHT22;24179;52.094;4.408;2022-09-16T03:02:19;11.50;99.90
38398;DHT22;24179;52.094;4.408;2022-09-16T03:05:25;11.50;99.90
38398;DHT22;24179;52.094;4.408;2022-09-16T03:08:26;11.50;99.90
38398;DHT22;24179;52.094;4.408;2022-09-16T03:21:16;11.50;99.90
38398;DHT22;24179;52.094;4.408;2022-09-16T03:27:34;11.50;99.90
38398;DHT22;24179;52.094;4.408;2022-09-16T03:30:43;11.50;99.90
38398;DHT22;24179;52.094;4.408;2022-09-16T03:36:47;11.50;99.90
38398;DHT22;24179;52.094;4.408;2022-09-16T03:39:52;11.60;99.90
38398;DHT22;24179;52.094;4.408;2022-09-16T03:42:54;11.60;99.90
38398;DHT22;24179;52.094;4.408;2022-09-16T03:45:56;11.60;99.90
38398;DHT22;24179;52.094;4.408;2022-09-16T03:48:57;11.60;99.90
38398;DHT22;24179;52.094;4.408;2022-09-16T03:51:58;11.60;99.90
38398;DHT22;24179;52.094;4.408;2022-09-16T03:54:58;11.70;99.90
38398;DHT22;24179;52.094;4.408;2022-09-16T03:57:59;11.60;99.90
38398;DHT22;24179;52.094;4.408;2022-09-16T04:00:59;11.50;99.90
38398;DHT22;24179;52.094;4.408;2022-09-16T04:04:00;11.50;99.90
38398;DHT22;24179;52.094;4.408;2022-09-16T04:07:01;11.50;99.90
38398;DHT22;24179;52.094;4.408;2022-09-16T04:10:01;11.40;99.90
38398;DHT22;24179;52.094;4.408;2022-09-16T04:13:02;11.40;99.90
38398;DHT22;24179;52.094;4.408;2022-09-16T04:16:03;11.40;99.90
38398;DHT22;24179;52.094;4.408;2022-09-16T04:19:03;11.30;99.90
38398;DHT22;24179;52.094;4.408;2022-09-16T04:22:04;11.30;99.90
38398;DHT22;24179;52.094;4.408;2022-09-16T04:25:06;11.30;99.90
38398;DHT22;24179;52.094;4.408;2022-09-16T04:28:07;11.40;99.90
38398;DHT22;24179;52.094;4.408;2022-09-16T04:31:10;11.50;99.90
38398;DHT22;24179;52.094;4.408;2022-09-16T04:34:11;11.60;99.90
38398;DHT22;24179;52.094;4.408;2022-09-16T04:37:12;11.60;99.90
38398;DHT22;24179;52.094;4.408;2022-09-16T04:40:12;11.60;99.90
38398;DHT22;24179;52.094;4.408;2022-09-16T04:43:13;11.70;99.90
38398;DHT22;24179;52.094;4.408;2022-09-16T04:46:14;11.60;99.90
38398;DHT22;24179;52.094;4.408;2022-09-16T04:49:14;11.60;99.90
38398;DHT22;24179;52.094;4.408;2022-09-16T04:52:15;11.60;99.90
38398;DHT22;24179;52.094;4.408;2022-09-16T04:55:16;11.60;99.90
38398;DHT22;24179;52.094;4.408;2022-09-16T04:58:16;11.80;99.90
38398;DHT22;24179;52.094;4.408;2022-09-16T05:01:18;11.90;99.90
38398;DHT22;24179;52.094;4.408;2022-09-16T05:04:18;12.10;99.90
38398;DHT22;24179;52.094;4.408;2022-09-16T05:07:19;12.00;99.90
38398;DHT22;24179;52.094;4.408;2022-09-16T05:10:19;12.00;99.90
38398;DHT22;24179;52.094;4.408;2022-09-16T05:13:21;12.00;99.90
38398;DHT22;24179;52.094;4.408;2022-09-16T05:16:22;12.00;99.90
38398;DHT22;24179;52.094;4.408;2022-09-16T05:19:22;12.00;99.90
38398;DHT22;24179;52.094;4.408;2022-09-16T05:22:23;12.00;99.90
38398;DHT22;24179;52.094;4.408;2022-09-16T05:25:23;12.00;99.90
38398;DHT22;24179;52.094;4.408;2022-09-16T05:28:24;12.00;99.90
38398;DHT22;24179;52.094;4.408;2022-09-16T05:31:26;12.20;99.90
38398;DHT22;24179;52.094;4.408;2022-09-16T05:34:27;12.50;99.90
38398;DHT22;24179;52.094;4.408;2022-09-16T05:37:27;12.70;99.90
38398;DHT22;24179;52.094;4.408;2022-09-16T05:40:28;12.40;99.90
38398;DHT22;24179;52.094;4.408;2022-09-16T05:43:29;12.20;99.90
38398;DHT22;24179;52.094;4.408;2022-09-16T05:46:30;12.10;99.90
38398;DHT22;24179;52.094;4.408;2022-09-16T05:49:30;12.10;99.90
38398;DHT22;24179;52.094;4.408;2022-09-16T05:52:31;12.10;99.90
38398;DHT22;24179;52.094;4.408;2022-09-16T05:55:33;12.00;99.90
38398;DHT22;24179;52.094;4.408;2022-09-16T05:58:35;11.90;99.90
38398;DHT22;24179;52.094;4.408;2022-09-16T06:01:35;11.70;99.90
38398;DHT22;24179;52.094;4.408;2022-09-16T06:04:36;11.50;99.90
38398;DHT22;24179;52.094;4.408;2022-09-16T06:07:36;11.40;99.90
38398;DHT22;24179;52.094;4.408;2022-09-16T06:10:38;11.30;99.90
38398;DHT22;24179;52.094;4.408;2022-09-16T06:13:39;11.20;99.90
38398;DHT22;24179;52.094;4.408;2022-09-16T06:16:39;11.10;99.90
38398;DHT22;24179;52.094;4.408;2022-09-16T06:19:40;11.10;99.90
38398;DHT22;24179;52.094;4.408;2022-09-16T06:22:40;11.10;99.90
38398;DHT22;24179;52.094;4.408;2022-09-16T06:25:41;11.20;99.90
38398;DHT22;24179;52.094;4.408;2022-09-16T06:28:41;11.40;99.90
38398;DHT22;24179;52.094;4.408;2022-09-16T06:31:42;11.50;99.90
38398;DHT22;24179;52.094;4.408;2022-09-16T06:34:43;11.70;99.90
38398;DHT22;24179;52.094;4.408;2022-09-16T06:37:44;11.90;99.90
38398;DHT22;24179;52.094;4.408;2022-09-16T06:40:44;12.00;99.90
38398;DHT22;24179;52.094;4.408;2022-09-16T06:43:45;12.20;99.90
38398;DHT22;24179;52.094;4.408;2022-09-16T06:46:46;12.30;99.90
38398;DHT22;24179;52.094;4.408;2022-09-16T06:49:46;12.40;99.90
38398;DHT22;24179;52.094;4.408;2022-09-16T06:52:49;12.50;99.90
38398;DHT22;24179;52.094;4.408;2022-09-16T06:55:49;12.70;99.90
38398;DHT22;24179;52.094;4.408;2022-09-16T06:58:50;13.10;99.90
38398;DHT22;24179;52.094;4.408;2022-09-16T07:01:54;13.60;99.90
38398;DHT22;24179;52.094;4.408;2022-09-16T07:04:55;14.30;99.90
38398;DHT22;24179;52.094;4.408;2022-09-16T07:07:56;14.90;99.90
38398;DHT22;24179;52.094;4.408;2022-09-16T07:10:58;15.40;99.90
38398;DHT22;24179;52.094;4.408;2022-09-16T07:13:59;15.40;99.90
38398;DHT22;24179;52.094;4.408;2022-09-16T07:17:00;15.00;99.90
38398;DHT22;24179;52.094;4.408;2022-09-16T07:20:01;14.20;99.90
38398;DHT22;24179;52.094;4.408;2022-09-16T07:23:01;13.70;99.90
38398;DHT22;24179;52.094;4.408;2022-09-16T07:26:03;13.40;99.90
38398;DHT22;24179;52.094;4.408;2022-09-16T07:29:05;13.20;99.90
38398;DHT22;24179;52.094;4.408;2022-09-16T07:32:06;13.20;99.90
38398;DHT22;24179;52.094;4.408;2022-09-16T07:35:06;13.10;99.90
38398;DHT22;24179;52.094;4.408;2022-09-16T07:38:07;12.80;99.90
38398;DHT22;24179;52.094;4.408;2022-09-16T07:41:10;12.70;99.90
38398;DHT22;24179;52.094;4.408;2022-09-16T07:44:21;12.70;99.90
38398;DHT22;24179;52.094;4.408;2022-09-16T07:47:22;13.00;99.90
38398;DHT22;24179;52.094;4.408;2022-09-16T07:50:22;13.50;99.90
38398;DHT22;24179;52.094;4.408;2022-09-16T07:53:24;14.30;99.90
38398;DHT22;24179;52.094;4.408;2022-09-16T07:56:27;15.70;99.90
38398;DHT22;24179;52.094;4.408;2022-09-16T07:59:28;15.80;99.90
38398;DHT22;24179;52.094;4.408;2022-09-16T08:02:28;15.60;99.90
38398;DHT22;24179;52.094;4.408;2022-09-16T08:05:29;15.10;99.90
38398;DHT22;24179;52.094;4.408;2022-09-16T08:08:29;14.80;99.90
38398;DHT22;24179;52.094;4.408;2022-09-16T08:11:30;14.40;99.90
38398;DHT22;24179;52.094;4.408;2022-09-16T08:14:31;14.00;99.90
38398;DHT22;24179;52.094;4.408;2022-09-16T08:17:32;13.70;99.90
38398;DHT22;24179;52.094;4.408;2022-09-16T08:20:32;13.30;99.90
38398;DHT22;24179;52.094;4.408;2022-09-16T08:23:33;13.00;99.90
38398;DHT22;24179;52.094;4.408;2022-09-16T08:26:34;12.60;99.90
38398;DHT22;24179;52.094;4.408;2022-09-16T08:29:35;12.60;99.90
38398;DHT22;24179;52.094;4.408;2022-09-16T08:32:35;12.90;99.90
38398;DHT22;24179;52.094;4.408;2022-09-16T08:35:36;13.80;99.90
38398;DHT22;24179;52.094;4.408;2022-09-16T08:38:36;14.20;99.90
38398;DHT22;24179;52.094;4.408;2022-09-16T08:41:44;13.30;99.90
38398;DHT22;24179;52.094;4.408;2022-09-16T08:44:53;12.60;99.90
38398;DHT22;24179;52.094;4.408;2022-09-16T08:51:00;12.10;99.90
38398;DHT22;24179;52.094;4.408;2022-09-16T08:54:12;12.30;99.90
38398;DHT22;24179;52.094;4.408;2022-09-16T08:57:18;12.70;99.90
38398;DHT22;24179;52.094;4.408;2022-09-16T09:00:19;13.30;99.90
38398;DHT22;24179;52.094;4.408;2022-09-16T09:06:25;14.10;99.90
38398;DHT22;24179;52.094;4.408;2022-09-16T09:13:12;14.00;99.90
38398;DHT22;24179;52.094;4.408;2022-09-16T09:19:37;13.80;99.90
38398;DHT22;24179;52.094;4.408;2022-09-16T09:35:15;12.20;99.90
38398;DHT22;24179;52.094;4.408;2022-09-16T09:41:31;13.00;99.90
38398;DHT22;24179;52.094;4.408;2022-09-16T09:47:50;13.70;99.90
38398;DHT22;24179;52.094;4.408;2022-09-16T09:50:51;14.50;99.90
38398;DHT22;24179;52.094;4.408;2022-09-16T09:53:53;14.70;99.90
38398;DHT22;24179;52.094;4.408;2022-09-16T09:56:58;14.40;99.90
38398;DHT22;24179;52.094;4.408;2022-09-16T10:03:14;12.50;99.90
38398;DHT22;24179;52.094;4.408;2022-09-16T10:06:16;12.20;99.90
38398;DHT22;24179;52.094;4.408;2022-09-16T10:09:20;12.20;99.90
38398;DHT22;24179;52.094;4.408;2022-09-16T10:15:28;12.40;99.90
38398;DHT22;24179;52.094;4.408;2022-09-16T10:18:30;13.10;99.90
38398;DHT22;24179;52.094;4.408;2022-09-16T10:21:39;13.60;99.90
38398;DHT22;24179;52.094;4.408;2022-09-16T10:24:40;13.90;99.90
38398;DHT22;24179;52.094;4.408;2022-09-16T10:27:52;14.00;99.90
38398;DHT22;24179;52.094;4.408;2022-09-16T10:30:56;15.60;99.90
38398;DHT22;24179;52.094;4.408;2022-09-16T10:33:57;16.90;99.90
38398;DHT22;24179;52.094;4.408;2022-09-16T10:37:01;18.10;99.90
38398;DHT22;24179;52.094;4.408;2022-09-16T10:40:02;19.40;99.90
38398;DHT22;24179;52.094;4.408;2022-09-16T10:43:11;20.30;99.90
38398;DHT22;24179;52.094;4.408;2022-09-16T10:46:13;21.00;99.90
38398;DHT22;24179;52.094;4.408;2022-09-16T10:49:23;22.40;99.90
38398;DHT22;24179;52.094;4.408;2022-09-16T10:52:44;22.60;99.90
38398;DHT22;24179;52.094;4.408;2022-09-16T10:55:54;21.90;99.90
38398;DHT22;24179;52.094;4.408;2022-09-16T10:59:07;22.20;99.90
38398;DHT22;24179;52.094;4.408;2022-09-16T11:02:14;22.30;99.90
38398;DHT22;24179;52.094;4.408;2022-09-16T11:25:13;18.50;99.90
38398;DHT22;24179;52.094;4.408;2022-09-16T11:31:35;16.80;99.90
38398;DHT22;24179;52.094;4.408;2022-09-16T11:37:51;17.30;99.90
38398;DHT22;24179;52.094;4.408;2022-09-16T11:50:33;19.10;99.90
38398;DHT22;24179;52.094;4.408;2022-09-16T11:54:02;19.20;99.90
38398;DHT22;24179;52.094;4.408;2022-09-16T11:57:00;18.90;99.90
38398;DHT22;24179;52.094;4.408;2022-09-16T12:00:03;18.80;99.90
38398;DHT22;24179;52.094;4.408;2022-09-16T12:06:13;18.30;99.90
38398;DHT22;24179;52.094;4.408;2022-09-16T12:09:19;19.60;99.90
38398;DHT22;24179;52.094;4.408;2022-09-16T12:12:37;19.20;99.90
38398;DHT22;24179;52.094;4.408;2022-09-16T12:15:49;18.30;99.90
38398;DHT22;24179;52.094;4.408;2022-09-16T12:18:52;17.30;99.90
38398;DHT22;24179;52.094;4.408;2022-09-16T12:22:40;16.40;99.90
38398;DHT22;24179;52.094;4.408;2022-09-16T12:25:23;15.50;99.90
38398;DHT22;24179;52.094;4.408;2022-09-16T12:28:37;14.40;99.90
38398;DHT22;24179;52.094;4.408;2022-09-16T12:34:53;13.00;99.90
38398;DHT22;24179;52.094;4.408;2022-09-16T12:37:55;12.70;99.90
38398;DHT22;24179;52.094;4.408;2022-09-16T12:44:04;12.10;99.90
38398;DHT22;24179;52.094;4.408;2022-09-16T12:56:39;11.50;99.90
38398;DHT22;24179;52.094;4.408;2022-09-16T12:59:46;11.60;99.90
38398;DHT22;24179;52.094;4.408;2022-09-16T13:02:54;11.50;99.90
38398;DHT22;24179;52.094;4.408;2022-09-16T13:05:56;11.50;99.90
38398;DHT22;24179;52.094;4.408;2022-09-16T13:09:10;11.50;99.90
38398;DHT22;24179;52.094;4.408;2022-09-16T13:15:37;11.60;99.90
38398;DHT22;24179;52.094;4.408;2022-09-16T13:21:39;11.50;99.90
38398;DHT22;24179;52.094;4.408;2022-09-16T13:24:43;11.70;99.90
38398;DHT22;24179;52.094;4.408;2022-09-16T13:27:55;12.10;99.90
38398;DHT22;24179;52.094;4.408;2022-09-16T13:31:08;12.60;99.90
38398;DHT22;24179;52.094;4.408;2022-09-16T13:34:15;12.80;99.90
38398;DHT22;24179;52.094;4.408;2022-09-16T13:37:23;13.10;99.90
38398;DHT22;24179;52.094;4.408;2022-09-16T13:40:24;13.00;99.90
38398;DHT22;24179;52.094;4.408;2022-09-16T13:46:35;13.40;99.90
38398;DHT22;24179;52.094;4.408;2022-09-16T13:49:55;14.00;99.90
38398;DHT22;24179;52.094;4.408;2022-09-16T13:52:56;15.20;99.90
38398;DHT22;24179;52.094;4.408;2022-09-16T13:59:18;15.80;99.90
38398;DHT22;24179;52.094;4.408;2022-09-16T14:06:04;16.50;99.90
38398;DHT22;24179;52.094;4.408;2022-09-16T14:09:14;16.60;99.90
38398;DHT22;24179;52.094;4.408;2022-09-16T14:15:50;18.40;99.90
38398;DHT22;24179;52.094;4.408;2022-09-16T14:19:02;19.30;99.90
38398;DHT22;24179;52.094;4.408;2022-09-16T14:22:16;19.50;99.90
38398;DHT22;24179;52.094;4.408;2022-09-16T14:25:24;19.70;99.90
38398;DHT22;24179;52.094;4.408;2022-09-16T14:28:27;20.00;99.90
38398;DHT22;24179;52.094;4.408;2022-09-16T14:31:28;17.00;99.90
38398;DHT22;24179;52.094;4.408;2022-09-16T14:34:30;15.80;99.90
38398;DHT22;24179;52.094;4.408;2022-09-16T14:37:31;15.90;99.90
38398;DHT22;24179;52.094;4.408;2022-09-16T14:40:33;16.40;99.90
38398;DHT22;24179;52.094;4.408;2022-09-16T14:43:38;17.20;99.90
38398;DHT22;24179;52.094;4.408;2022-09-16T14:46:42;18.20;99.90
38398;DHT22;24179;52.094;4.408;2022-09-16T14:49:43;18.70;99.90
38398;DHT22;24179;52.094;4.408;2022-09-16T14:52:54;19.30;99.90
38398;DHT22;24179;52.094;4.408;2022-09-16T14:55:55;19.90;99.90
38398;DHT22;24179;52.094;4.408;2022-09-16T14:58:56;20.20;99.90
38398;DHT22;24179;52.094;4.408;2022-09-16T15:02:07;19.70;99.90
38398;DHT22;24179;52.094;4.408;2022-09-16T15:08:44;19.40;99.90
38398;DHT22;24179;52.094;4.408;2022-09-16T15:11:48;18.90;99.90
38398;DHT22;24179;52.094;4.408;2022-09-16T15:14:49;18.20;99.90
38398;DHT22;24179;52.094;4.408;2022-09-16T15:17:52;17.40;99.90
38398;DHT22;24179;52.094;4.408;2022-09-16T15:20:59;16.50;99.90
38398;DHT22;24179;52.094;4.408;2022-09-16T15:24:01;15.90;99.90
38398;DHT22;24179;52.094;4.408;2022-09-16T15:27:02;15.50;99.90
38398;DHT22;24179;52.094;4.408;2022-09-16T15:30:03;15.30;99.90
38398;DHT22;24179;52.094;4.408;2022-09-16T15:33:20;15.30;99.90
38398;DHT22;24179;52.094;4.408;2022-09-16T15:36:35;15.40;99.90
38398;DHT22;24179;52.094;4.408;2022-09-16T15:39:36;16.10;99.90
38398;DHT22;24179;52.094;4.408;2022-09-16T15:42:37;16.80;99.90
38398;DHT22;24179;52.094;4.408;2022-09-16T15:45:38;17.70;99.90
38398;DHT22;24179;52.094;4.408;2022-09-16T15:48:52;18.10;99.90
38398;DHT22;24179;52.094;4.408;2022-09-16T15:51:55;17.50;99.90
38398;DHT22;24179;52.094;4.408;2022-09-16T15:55:00;16.60;99.90
38398;DHT22;24179;52.094;4.408;2022-09-16T15:58:05;16.00;99.90
38398;DHT22;24179;52.094;4.408;2022-09-16T16:04:29;15.60;99.90
38398;DHT22;24179;52.094;4.408;2022-09-16T16:07:41;15.40;99.90
38398;DHT22;24179;52.094;4.408;2022-09-16T16:10:42;15.50;99.90
38398;DHT22;24179;52.094;4.408;2022-09-16T16:13:57;15.70;99.90
38398;DHT22;24179;52.094;4.408;2022-09-16T16:17:01;15.70;99.90
38398;DHT22;24179;52.094;4.408;2022-09-16T16:20:02;15.60;99.90
38398;DHT22;24179;52.094;4.408;2022-09-16T16:23:02;15.90;99.90
38398;DHT22;24179;52.094;4.408;2022-09-16T16:26:03;16.00;99.90
38398;DHT22;24179;52.094;4.408;2022-09-16T16:29:04;15.90;99.90
38398;DHT22;24179;52.094;4.408;2022-09-16T16:32:09;15.60;99.90
38398;DHT22;24179;52.094;4.408;2022-09-16T16:35:09;15.30;99.90
38398;DHT22;24179;52.094;4.408;2022-09-16T16:38:10;15.30;99.90
38398;DHT22;24179;52.094;4.408;2022-09-16T16:41:11;15.40;99.90
38398;DHT22;24179;52.094;4.408;2022-09-16T16:44:12;15.40;99.90
38398;DHT22;24179;52.094;4.408;2022-09-16T16:47:13;15.30;99.90
38398;DHT22;24179;52.094;4.408;2022-09-16T16:50:14;15.00;99.90
38398;DHT22;24179;52.094;4.408;2022-09-16T16:53:15;14.80;99.90
38398;DHT22;24179;52.094;4.408;2022-09-16T16:56:15;14.80;99.90
38398;DHT22;24179;52.094;4.408;2022-09-16T16:59:16;14.80;99.90
38398;DHT22;24179;52.094;4.408;2022-09-16T17:02:17;14.80;99.90
38398;DHT22;24179;52.094;4.408;2022-09-16T17:05:17;14.50;99.90
38398;DHT22;24179;52.094;4.408;2022-09-16T17:08:18;14.40;99.90
38398;DHT22;24179;52.094;4.408;2022-09-16T17:11:19;14.40;99.90
38398;DHT22;24179;52.094;4.408;2022-09-16T17:14:20;14.40;99.90
38398;DHT22;24179;52.094;4.408;2022-09-16T17:17:21;14.40;99.90
38398;DHT22;24179;52.094;4.408;2022-09-16T17:20:22;14.50;99.90
38398;DHT22;24179;52.094;4.408;2022-09-16T17:23:22;14.50;99.90
38398;DHT22;24179;52.094;4.408;2022-09-16T17:26:23;14.50;99.90
38398;DHT22;24179;52.094;4.408;2022-09-16T17:29:24;14.50;99.90
38398;DHT22;24179;52.094;4.408;2022-09-16T17:32:24;14.50;99.90
38398;DHT22;24179;52.094;4.408;2022-09-16T17:35:24;14.40;99.90
38398;DHT22;24179;52.094;4.408;2022-09-16T17:38:25;14.20;99.90
38398;DHT22;24179;52.094;4.408;2022-09-16T17:41:26;14.20;99.90
38398;DHT22;24179;52.094;4.408;2022-09-16T17:44:26;14.20;99.90
38398;DHT22;24179;52.094;4.408;2022-09-16T17:47:27;14.20;99.90
38398;DHT22;24179;52.094;4.408;2022-09-16T17:50:27;14.20;99.90
38398;DHT22;24179;52.094;4.408;2022-09-16T17:53:28;14.20;99.90
38398;DHT22;24179;52.094;4.408;2022-09-16T17:56:28;14.30;99.90
38398;DHT22;24179;52.094;4.408;2022-09-16T17:59:29;14.30;99.90
38398;DHT22;24179;52.094;4.408;2022-09-16T18:02:29;14.20;99.90
38398;DHT22;24179;52.094;4.408;2022-09-16T18:05:33;14.20;99.90
38398;DHT22;24179;52.094;4.408;2022-09-16T18:08:34;14.20;99.90
38398;DHT22;24179;52.094;4.408;2022-09-16T18:11:37;14.10;99.90
38398;DHT22;24179;52.094;4.408;2022-09-16T18:14:37;14.10;99.90
38398;DHT22;24179;52.094;4.408;2022-09-16T18:17:38;14.00;99.90
38398;DHT22;24179;52.094;4.408;2022-09-16T18:20:38;13.90;99.90
38398;DHT22;24179;52.094;4.408;2022-09-16T18:23:39;14.00;99.90
38398;DHT22;24179;52.094;4.408;2022-09-16T18:26:40;14.00;99.90
38398;DHT22;24179;52.094;4.408;2022-09-16T18:29:41;14.00;99.90
38398;DHT22;24179;52.094;4.408;2022-09-16T18:32:41;14.00;99.90
38398;DHT22;24179;52.094;4.408;2022-09-16T18:35:43;14.10;99.90
38398;DHT22;24179;52.094;4.408;2022-09-16T18:38:44;14.20;99.90
38398;DHT22;24179;52.094;4.408;2022-09-16T18:41:44;13.50;99.90
38398;DHT22;24179;52.094;4.408;2022-09-16T18:44:45;13.00;99.90
38398;DHT22;24179;52.094;4.408;2022-09-16T18:47:47;12.60;99.90
38398;DHT22;24179;52.094;4.408;2022-09-16T18:50:47;12.60;99.90
38398;DHT22;24179;52.094;4.408;2022-09-16T18:53:50;12.60;99.90
38398;DHT22;24179;52.094;4.408;2022-09-16T18:56:52;12.70;99.90
38398;DHT22;24179;52.094;4.408;2022-09-16T18:59:54;12.70;99.90
38398;DHT22;24179;52.094;4.408;2022-09-16T19:02:55;12.70;99.90
38398;DHT22;24179;52.094;4.408;2022-09-16T19:05:55;12.90;99.90
38398;DHT22;24179;52.094;4.408;2022-09-16T19:08:56;13.00;99.90
38398;DHT22;24179;52.094;4.408;2022-09-16T19:11:57;13.10;99.90
38398;DHT22;24179;52.094;4.408;2022-09-16T19:15:00;13.30;99.90
38398;DHT22;24179;52.094;4.408;2022-09-16T19:18:01;13.40;99.90
38398;DHT22;24179;52.094;4.408;2022-09-16T19:21:01;13.40;99.90
38398;DHT22;24179;52.094;4.408;2022-09-16T19:24:03;13.40;99.90
38398;DHT22;24179;52.094;4.408;2022-09-16T19:27:05;13.50;99.90
38398;DHT22;24179;52.094;4.408;2022-09-16T19:30:06;13.60;99.90
38398;DHT22;24179;52.094;4.408;2022-09-16T19:33:06;13.50;99.90
38398;DHT22;24179;52.094;4.408;2022-09-16T19:39:10;13.10;99.90
38398;DHT22;24179;52.094;4.408;2022-09-16T19:42:11;13.00;99.90
38398;DHT22;24179;52.094;4.408;2022-09-16T19:45:12;13.00;99.90
38398;DHT22;24179;52.094;4.408;2022-09-16T19:48:12;13.10;99.90
38398;DHT22;24179;52.094;4.408;2022-09-16T19:51:14;13.50;99.90
38398;DHT22;24179;52.094;4.408;2022-09-16T19:54:15;13.50;99.90
38398;DHT22;24179;52.094;4.408;2022-09-16T19:57:15;13.20;99.90
38398;DHT22;24179;52.094;4.408;2022-09-16T20:00:16;12.60;99.90
38398;DHT22;24179;52.094;4.408;2022-09-16T20:03:16;11.70;99.90
38398;DHT22;24179;52.094;4.408;2022-09-16T20:06:21;11.30;99.90
38398;DHT22;24179;52.094;4.408;2022-09-16T20:09:22;11.30;99.90
38398;DHT22;24179;52.094;4.408;2022-09-16T20:12:22;11.30;99.90
38398;DHT22;24179;52.094;4.408;2022-09-16T20:15:26;11.30;99.90
38398;DHT22;24179;52.094;4.408;2022-09-16T20:18:27;11.30;99.90
38398;DHT22;24179;52.094;4.408;2022-09-16T20:21:28;11.30;99.90
38398;DHT22;24179;52.094;4.408;2022-09-16T20:24:29;11.20;99.90
38398;DHT22;24179;52.094;4.408;2022-09-16T20:27:30;11.10;99.90
38398;DHT22;24179;52.094;4.408;2022-09-16T20:30:30;11.00;99.90
38398;DHT22;24179;52.094;4.408;2022-09-16T20:33:31;10.80;99.90
38398;DHT22;24179;52.094;4.408;2022-09-16T20:36:34;10.80;99.90
38398;DHT22;24179;52.094;4.408;2022-09-16T20:39:35;10.90;99.90
38398;DHT22;24179;52.094;4.408;2022-09-16T20:42:35;11.10;99.90
38398;DHT22;24179;52.094;4.408;2022-09-16T20:45:36;11.10;99.90
38398;DHT22;24179;52.094;4.408;2022-09-16T20:48:37;11.10;99.90
38398;DHT22;24179;52.094;4.408;2022-09-16T20:51:38;11.10;99.90
38398;DHT22;24179;52.094;4.408;2022-09-16T20:54:38;11.10;99.90
38398;DHT22;24179;52.094;4.408;2022-09-16T20:57:38;11.10;99.90
38398;DHT22;24179;52.094;4.408;2022-09-16T21:00:39;11.20;99.90
38398;DHT22;24179;52.094;4.408;2022-09-16T21:03:40;11.30;99.90
38398;DHT22;24179;52.094;4.408;2022-09-16T21:06:41;11.40;99.90
38398;DHT22;24179;52.094;4.408;2022-09-16T21:09:41;11.40;99.90
38398;DHT22;24179;52.094;4.408;2022-09-16T21:12:43;11.50;99.90
38398;DHT22;24179;52.094;4.408;2022-09-16T21:15:52;11.50;99.90
38398;DHT22;24179;52.094;4.408;2022-09-16T21:18:54;11.30;99.90
38398;DHT22;24179;52.094;4.408;2022-09-16T21:21:54;11.20;99.90
38398;DHT22;24179;52.094;4.408;2022-09-16T21:24:55;11.20;99.90
38398;DHT22;24179;52.094;4.408;2022-09-16T21:27:56;11.20;99.90
38398;DHT22;24179;52.094;4.408;2022-09-16T21:30:57;11.20;99.90
38398;DHT22;24179;52.094;4.408;2022-09-16T21:34:00;11.10;99.90
38398;DHT22;24179;52.094;4.408;2022-09-16T21:37:01;11.20;99.90
38398;DHT22;24179;52.094;4.408;2022-09-16T21:40:04;11.20;99.90
38398;DHT22;24179;52.094;4.408;2022-09-16T21:43:05;11.20;99.90
38398;DHT22;24179;52.094;4.408;2022-09-16T21:46:12;11.30;99.90
38398;DHT22;24179;52.094;4.408;2022-09-16T21:49:15;11.30;99.90
38398;DHT22;24179;52.094;4.408;2022-09-16T21:52:23;11.20;99.90
38398;DHT22;24179;52.094;4.408;2022-09-16T21:55:25;11.20;99.90
38398;DHT22;24179;52.094;4.408;2022-09-16T21:58:25;11.30;99.90